KDSM/DSM METAR and TAF weather

Enter ICAO airport designator
Station Type Date Time Source
KDSM METAR 2021/03/01 20:54 UTC NOAA

KDSM 012054Z 04007KT 10SM FEW027 01/M06 A3037 RMK AO2 SLP294 T00111056 51007


Station Type Date Time Source
KDSM Decoded METAR 2021/03/01 20:54 UTC NOAA

DES MOINES INTERNATIONAL, IA, United States (KDSM) 41-32N 93-40W 295M
Mar 01, 2021 - 03:54 PM EST / 2021.03.01 2054 UTC
Wind: from the NE (040 degrees) at 8 MPH (7 KT):0
Visibility: 10 mile(s):0
Sky conditions: mostly clear
Temperature: 34.0 F (1.1 C)
Windchill: 26 F (-3 C):1
Dew Point: 21.9 F (-5.6 C)
Relative Humidity: 60%
Pressure (altimeter): 30.37 in. Hg (1028 hPa)
Pressure tendency: 0.02 inches (0.7 hPa) higher than three hours ago
ob: KDSM 012054Z 04007KT 10SM FEW027 01/M06 A3037 RMK AO2 SLP294 T00111056 51007
cycle: 21

Station Type Date Time Source
KDSM TAF 2021/03/01 18:30 UTC NOAA

TAF KDSM 011727Z 0118/0218 02012KT P6SM FEW020
FM012300 03007KT P6SM SKC
FM021400 17013G18KT P6SM FEW200

Example: see airport list